Latest Coastal Weather Observations for Parndana

IDS60701

Issued at 10:51 am CDT Monday 11 December 2017 (issued every 10 minutes, with the page automatically refreshed every 10 minutes)

About coastal observations | Map of coastal stations | Coastal observations for SA | Marine services | Other Formats
Station Details ID: 022843 Name: PARNDANA CFS AWS Lat: -35.79 Lon: 137.25 Height: 165.0 m
Data from the previous 72 hours. | See also: Recent months at Parndana
Date/Time
CDT
Temp
°C
Wind Pressure Rain since
9am
mm
Weather Cloud Vis
km
Sea
Height
m
Swell
Dir  Spd
kts
Gust
kts
hPa Trend Height
m
Period
s
Dir
11/10:30am 20.5 ESE 9 14 - - 0.0 - - - - - - -
11/10:00am 19.9 ESE 9 12 - - 0.0 - - - - - - -
11/09:30am 19.1 SE 8 11 - - 0.0 - - - - - - -
11/09:00am 17.7 E 7 14 - - 0.0 - - - - - - -
11/08:30am 15.8 ESE 10 13 - - 0.0 - - - - - - -
11/08:00am 14.6 ESE 7 11 - - 0.0 - - - - - - -
11/07:30am 13.7 ESE 5 6 - - 0.0 - - - - - - -
11/07:00am 12.0 ESE 5 6 - - 0.0 - - - - - - -
11/06:30am 11.0 SE 5 6 - - 0.0 - - - - - - -
11/06:00am 9.5 SE 4 6 - - 0.0 - - - - - - -
11/05:30am 10.0 SSE 5 5 - - 0.0 - - - - - - -
11/05:00am 9.6 SE 5 6 - - 0.0 - - - - - - -
11/04:30am 9.8 SE 4 5 - - 0.0 - - - - - - -
11/04:00am 9.6 SE 5 6 - - 0.0 - - - - - - -
11/03:30am 10.0 SE 5 5 - - 0.0 - - - - - - -
11/03:00am 10.2 SE 4 5 - - 0.0 - - - - - - -
11/02:30am 10.6 SE 4 5 - - 0.0 - - - - - - -
11/02:00am 10.6 SE 5 7 - - 0.0 - - - - - - -
11/01:30am 10.4 SE 6 8 - - 0.0 - - - - - - -
11/01:00am 10.1 SSE 5 6 - - 0.0 - - - - - - -
11/12:30am 10.1 SSE 5 6 - - 0.0 - - - - - - -
11/12:00am 10.6 SSE 4 5 - - 0.0 - - - - - - -
 
Date/Time
CDT
Temp
°C
Wind Pressure Rain since
9am
mm
Weather Cloud Vis
km
Sea
Height
m
Swell
Dir  Spd
kts
Gust
kts
hPa Trend Height
m
Period
s
Dir
10/11:30pm 10.6 SE 5 6 - - 0.0 - - - - - - -
10/11:00pm 11.3 SSE 5 6 - - 0.0 - - - - - - -
10/10:30pm 12.1 SE 5 6 - - 0.0 - - - - - - -
10/10:00pm 12.9 SE 7 9 - - 0.0 - - - - - - -
10/09:30pm 13.6 SE 7 9 - - 0.0 - - - - - - -
10/09:00pm 14.0 SE 7 11 - - 0.0 - - - - - - -
10/08:30pm 14.8 SSE 8 10 - - 0.0 - - - - - - -
10/08:00pm 16.1 S 9 12 - - 0.0 - - - - - - -
10/07:30pm 17.7 S 10 13 - - 0.0 - - - - - - -
10/07:00pm 18.8 S 11 14 - - 0.0 - - - - - - -
10/06:30pm 19.3 S 10 14 - - 0.0 - - - - - - -
10/06:00pm 20.9 S 11 16 - - 0.0 - - - - - - -
10/05:30pm 21.0 SSE 9 15 - - 0.0 - - - - - - -
10/05:00pm 22.1 SSE 8 13 - - 0.0 - - - - - - -
10/04:30pm 22.6 S 10 14 - - 0.0 - - - - - - -
10/04:00pm 22.9 S 11 16 - - 0.0 - - - - - - -
10/03:30pm 23.3 S 11 15 - - 0.0 - - - - - - -
10/03:00pm 23.8 SSW 13 18 - - 0.0 - - - - - - -
10/02:30pm 24.4 S 12 18 - - 0.0 - - - - - - -
10/02:00pm 25.3 S 7 15 - - 0.0 - - - - - - -
10/01:30pm 25.4 SSE 9 13 - - 0.0 - - - - - - -
10/01:00pm 24.7 N 4 8 - - 0.0 - - - - - - -
10/12:30pm 24.1 S 3 5 - - 0.0 - - - - - - -
10/12:00pm 23.7 NE 4 7 - - 0.0 - - - - - - -
10/11:30am 23.4 WSW 4 6 - - 0.0 - - - - - - -
10/11:00am 21.9 SE 2 5 - - 0.0 - - - - - - -
10/10:30am 21.1 E 5 9 - - 0.0 - - - - - - -
10/10:00am 20.4 ENE 4 6 - - 0.0 - - - - - - -
10/09:30am 19.0 ENE 5 7 - - 0.0 - - - - - - -
10/09:00am 18.4 E 5 9 - - 0.0 - - - - - - -
10/08:30am 17.2 ENE 7 10 - - 0.0 - - - - - - -
10/08:00am 15.6 ESE 5 7 - - 0.0 - - - - - - -
10/07:30am 14.4 ESE 3 4 - - 0.0 - - - - - - -
10/07:00am 12.1 E 3 3 - - 0.0 - - - - - - -
10/06:30am 9.6 ESE 3 4 - - 0.0 - - - - - - -
10/06:00am 9.5 ESE 4 4 - - 0.0 - - - - - - -
10/05:30am 8.9 SE 3 3 - - 0.0 - - - - - - -
10/05:00am 9.6 SE 4 5 - - 0.0 - - - - - - -
10/04:30am 9.2 SSE 3 4 - - 0.0 - - - - - - -
10/04:00am 8.8 SSE 3 4 - - 0.0 - - - - - - -
10/03:30am 9.6 SE 3 3 - - 0.0 - - - - - - -
10/03:00am 9.7 SSE 2 3 - - 0.0 - - - - - - -
10/02:30am 9.5 SSE 2 2 - - 0.0 - - - - - - -
10/02:00am 10.6 SSE 2 2 - - 0.0 - - - - - - -
10/01:30am 10.6 S 2 2 - - 0.0 - - - - - - -
10/01:00am 9.5 SSE 2 2 - - 0.0 - - - - - - -
10/12:30am 11.3 SE 3 3 - - 0.0 - - - - - - -
10/12:00am 10.9 SSE 2 2 - - 0.0 - - - - - - -
 
Date/Time
CDT
Temp
°C
Wind Pressure Rain since
9am
mm
Weather Cloud Vis
km
Sea
Height
m
Swell
Dir  Spd
kts
Gust
kts
hPa Trend Height
m
Period
s
Dir
09/11:30pm 11.4 SSE 1 2 - - 0.0 - - - - - - -
09/11:00pm 11.4 SSE 3 3 - - 0.0 - - - - - - -
09/10:30pm 11.8 S 4 5 - - 0.0 - - - - - - -
09/10:00pm 12.1 S 5 5 - - 0.0 - - - - - - -
09/09:30pm 12.7 S 4 5 - - 0.0 - - - - - - -
09/09:00pm 13.7 S 5 7 - - 0.0 - - - - - - -
09/08:30pm 15.0 S 7 10 - - 0.0 - - - - - - -
09/08:00pm 16.4 S 8 11 - - 0.0 - - - - - - -
09/07:30pm 17.5 SSW 10 13 - - 0.0 - - - - - - -
09/07:00pm 18.3 S 9 15 - - 0.0 - - - - - - -
09/06:30pm 19.4 S 9 13 - - 0.0 - - - - - - -
09/06:00pm 20.0 S 10 14 - - 0.0 - - - - - - -
09/05:30pm 21.5 S 8 14 - - 0.0 - - - - - - -
09/05:00pm 20.9 S 9 12 - - 0.0 - - - - - - -
09/04:30pm 21.4 S 9 14 - - 0.0 - - - - - - -
09/04:00pm 22.4 S 10 17 - - 0.0 - - - - - - -
09/03:30pm 22.0 SSW 10 16 - - 0.0 - - - - - - -
09/03:00pm 21.7 S 8 12 - - 0.0 - - - - - - -
09/02:30pm 21.2 SSE 7 11 - - 0.0 - - - - - - -
09/02:00pm 21.1 SE 10 15 - - 0.0 - - - - - - -
09/01:30pm 22.3 S 8 12 - - 0.0 - - - - - - -
09/01:00pm 21.7 NNE 5 9 - - 0.0 - - - - - - -
09/12:30pm 22.5 W 5 10 - - 0.0 - - - - - - -
09/12:00pm 22.3 WNW 6 10 - - 0.0 - - - - - - -
09/11:30am 21.8 WNW 6 9 - - 0.0 - - - - - - -
09/11:00am 20.4 WNW 8 11 - - 0.0 - - - - - - -
09/10:30am 20.3 W 7 13 - - 0.0 - - - - - - -
09/10:00am 19.0 SW 8 13 - - 0.0 - - - - - - -
09/09:30am 18.2 SW 7 10 - - 0.0 - - - - - - -
09/09:00am 17.3 SW 8 12 - - 0.0 - - - - - - -
09/08:30am 16.2 WSW 7 11 - - 0.0 - - - - - - -
09/08:00am 14.8 WSW 6 8 - - 0.0 - - - - - - -
09/07:30am 13.1 W 4 5 - - 0.0 - - - - - - -
09/07:00am 11.4 W 5 6 - - 0.0 - - - - - - -
09/06:30am 9.3 WNW 6 7 - - 0.0 - - - - - - -
09/06:00am 8.3 NW 6 7 - - 0.0 - - - - - - -
09/05:30am 8.0 NNW 6 7 - - 0.0 - - - - - - -
09/05:00am 8.6 NNW 4 5 - - 0.0 - - - - - - -
09/04:30am 7.9 NNW 4 5 - - 0.0 - - - - - - -
09/04:00am 8.7 WNW 4 4 - - 0.0 - - - - - - -
09/03:30am 8.8 NW 4 4 - - 0.0 - - - - - - -
09/03:00am 8.7 NNW 3 4 - - 0.0 - - - - - - -
09/02:30am 8.3 NW 2 3 - - 0.0 - - - - - - -
09/02:00am 8.8 NW 3 4 - - 0.0 - - - - - - -
09/01:30am 8.8 NW 5 5 - - 0.0 - - - - - - -
09/01:00am 9.1 NW 4 5 - - 0.0 - - - - - - -
09/12:30am 9.6 NW 4 4 - - 0.0 - - - - - - -
09/12:00am 10.4 WNW 2 3 - - 0.0 - - - - - - -
 
Date/Time
CDT
Temp
°C
Wind Pressure Rain since
9am
mm
Weather Cloud Vis
km
Sea
Height
m
Swell
Dir  Spd
kts
Gust
kts
hPa Trend Height
m
Period
s
Dir
08/11:30pm 10.1 NW 3 3 - - 0.0 - - - - - - -
08/11:00pm 9.9 WNW 4 5 - - 0.0 - - - - - - -
08/10:30pm 10.2 WSW 4 4 - - 0.0 - - - - - - -
08/10:00pm 10.3 W 4 6 - - 0.0 - - - - - - -
08/09:30pm 11.8 WSW 4 5 - - 0.0 - - - - - - -
08/09:00pm 12.4 WSW 4 5 - - 0.0 - - - - - - -
08/08:30pm 14.3 WSW 8 10 - - 0.0 - - - - - - -
08/08:00pm 15.7 WSW 8 13 - - 0.0 - - - - - - -
08/07:30pm 16.7 WSW 10 13 - - 0.0 - - - - - - -
08/07:00pm 17.3 WSW 11 15 - - 0.0 - - - - - - -
08/06:30pm 18.1 SW 10 16 - - 0.0 - - - - - - -
08/06:00pm 18.9 SSW 12 16 - - 0.0 - - - - - - -
08/05:30pm 19.4 SW 12 16 - - 0.0 - - - - - - -
08/05:00pm 19.9 SSW 11 17 - - 0.0 - - - - - - -
08/04:30pm 20.1 SW 10 15 - - 0.0 - - - - - - -
08/04:00pm 18.9 S 9 14 - - 0.0 - - - - - - -
08/03:30pm 19.6 SSW 9 17 - - 0.0 - - - - - - -
08/03:00pm 20.0 SSW 8 14 - - 0.0 - - - - - - -
08/02:30pm 19.7 SSW 8 12 - - 0.0 - - - - - - -
08/02:00pm 18.7 S 9 14 - - 0.0 - - - - - - -
08/01:30pm 19.0 S 9 14 - - 0.0 - - - - - - -
08/01:00pm 19.4 SSW 10 17 - - 0.0 - - - - - - -
08/12:30pm 19.1 S 11 18 - - 0.0 - - - - - - -
08/12:00pm 18.8 SSW 11 16 - - 0.0 - - - - - - -
08/11:30am 18.1 WSW 9 14 - - 0.0 - - - - - - -
08/11:00am 18.3 SSW 10 15 - - 0.0 - - - - - - -

Other Formats:

Comma delimited format used in spreadsheet applications
http://www.bom.gov.au/fwo/IDS60701/IDS60701.94807.axf

JavaScript Object Notation format (JSON) in row-major order
http://www.bom.gov.au/fwo/IDS60701/IDS60701.94807.json